Time;durP1;ratioP1;P1;durP2;ratioP2;P2;SDS_P1;SDS_P2;PMS_P1;PMS_P2;Temp;Humidity;BMP_temperature;BMP_pressure;BME280_temperature;BME280_humidity;BME280_pressure;Samples;Min_cycle;Max_cycle;Signal;HPM_P1;HPM_P2
2021/10/31 00:00:14;;;;;;;17.40;11.73;;;;;;;;;;5094983;28;20166;-76
2021/10/31 00:02:39;;;;;;;18.95;11.00;;;;;;;;;;5096082;28;20130;-76
2021/10/31 00:05:06;;;;;;;15.07;11.82;;;;;;;;;;5096201;28;20036;-76
2021/10/31 00:07:31;;;;;;;14.85;10.45;;;;;;;;;;5095771;28;20050;-76
2021/10/31 00:09:57;;;;;;;16.98;12.00;;;;;;;;;;5095485;28;20032;-76
2021/10/31 00:12:22;;;;;;;15.38;11.20;;;;;;;;;;5095936;28;20046;-76
2021/10/31 00:14:48;;;;;;;15.07;10.70;;;;;;;;;;5095924;28;20111;-76
2021/10/31 00:17:13;;;;;;;13.65;10.88;;;;;;;;;;5095950;28;20619;-76
2021/10/31 00:19:38;;;;;;;15.43;10.23;;;;;;;;;;5095803;28;20042;-76
2021/10/31 00:22:04;;;;;;;19.27;11.05;;;;;;;;;;5095552;28;20047;-76
2021/10/31 00:24:30;;;;;;;18.23;11.43;;;;;;;;;;5094353;28;20043;-76
2021/10/31 00:26:55;;;;;;;15.77;10.32;;;;;;;;;;5093507;28;20428;-76
2021/10/31 00:29:21;;;;;;;15.48;10.07;;;;;;;;;;5094324;28;20036;-76
2021/10/31 00:31:46;;;;;;;13.48;10.00;;;;;;;;;;5095498;28;20028;-76
2021/10/31 00:34:11;;;;;;;15.10;10.55;;;;;;;;;;5095517;28;20040;-76
2021/10/31 00:36:37;;;;;;;17.17;11.27;;;;;;;;;;5095530;28;20355;-76
2021/10/31 00:39:04;;;;;;;16.15;11.07;;;;;;;;;;5095291;28;20084;-76
2021/10/31 00:41:31;;;;;;;17.48;11.75;;;;;;;;;;5095122;28;20048;-76
2021/10/31 00:43:56;;;;;;;15.00;10.38;;;;;;;;;;5093052;28;20115;-76
2021/10/31 00:46:22;;;;;;;13.55;10.38;;;;;;;;;;5095066;28;20111;-76
2021/10/31 00:48:48;;;;;;;14.82;10.82;;;;;;;;;;5094846;28;20469;-76
2021/10/31 00:51:15;;;;;;;17.25;10.82;;;;;;;;;;5094753;28;20028;-76
2021/10/31 00:53:42;;;;;;;15.13;10.50;;;;;;;;;;5093684;28;20032;-76
2021/10/31 00:56:08;;;;;;;17.05;11.02;;;;;;;;;;5094963;28;20423;-76
2021/10/31 00:58:33;;;;;;;17.90;12.00;;;;;;;;;;5093918;28;20111;-77
2021/10/31 01:00:59;;;;;;;16.48;11.23;;;;;;;;;;5094883;28;20485;-77
2021/10/31 01:03:24;;;;;;;16.00;13.13;;;;;;;;;;5094850;28;20085;-76
2021/10/31 01:05:54;;;;;;;16.58;11.75;;;;;;;;;;5093285;28;20130;-75
2021/10/31 01:08:44;;;;;;;15.50;11.65;;;;;;;;;;5094523;28;20133;-76
2021/10/31 01:11:28;;;;;;;18.90;11.45;;;;;;;;;;5094809;28;20036;-76
2021/10/31 01:14:02;;;;;;;15.90;10.85;;;;;;;;;;5094475;28;20043;-76
2021/10/31 01:17:04;;;;;;;16.60;10.88;;;;;;;;;;5094714;28;20044;-76
2021/10/31 01:19:57;;;;;;;14.35;9.77;;;;;;;;;;5094643;28;20066;-76
2021/10/31 01:22:47;;;;;;;13.93;10.52;;;;;;;;;;5094584;28;20119;-76
2021/10/31 01:25:44;;;;;;;20.05;9.60;;;;;;;;;;5093069;28;20043;-76
2021/10/31 01:28:28;;;;;;;16.42;10.82;;;;;;;;;;5091356;28;20389;-76
2021/10/31 01:31:12;;;;;;;19.42;11.15;;;;;;;;;;5093618;28;20514;-76
2021/10/31 01:34:01;;;;;;;15.30;10.98;;;;;;;;;;5094242;28;20051;-76
2021/10/31 01:36:58;;;;;;;17.08;12.32;;;;;;;;;;5094382;28;20028;-76
2021/10/31 01:39:32;;;;;;;12.77;10.20;;;;;;;;;;5093899;28;20040;-75
2021/10/31 01:42:07;;;;;;;16.90;12.20;;;;;;;;;;5094117;28;20051;-76
2021/10/31 01:45:06;;;;;;;17.48;12.23;;;;;;;;;;5093943;28;20461;-75
2021/10/31 01:48:10;;;;;;;18.92;13.07;;;;;;;;;;5094012;28;20044;-76
2021/10/31 01:50:39;;;;;;;19.02;12.15;;;;;;;;;;5094180;28;20505;-76
2021/10/31 01:53:09;;;;;;;15.40;11.95;;;;;;;;;;5093569;28;20031;-76
2021/10/31 01:55:40;;;;;;;15.05;11.48;;;;;;;;;;5093599;28;20047;-75
2021/10/31 01:58:08;;;;;;;17.88;13.40;;;;;;;;;;5093545;28;20081;-76
2021/10/31 02:00:34;;;;;;;20.42;14.43;;;;;;;;;;5092548;28;20418;-75
2021/10/31 02:03:02;;;;;;;16.08;12.07;;;;;;;;;;5093848;28;20036;-76
2021/10/31 02:05:30;;;;;;;16.83;12.65;;;;;;;;;;5093910;28;20060;-76
2021/10/31 02:08:01;;;;;;;16.98;12.52;;;;;;;;;;5093784;28;20093;-76
2021/10/31 02:10:30;;;;;;;19.33;13.57;;;;;;;;;;5073680;28;20032;-76
2021/10/31 02:12:56;;;;;;;19.77;11.98;;;;;;;;;;5073404;28;20028;-76
2021/10/31 02:15:23;;;;;;;19.92;12.38;;;;;;;;;;5073024;28;20475;-76
2021/10/31 02:17:54;;;;;;;18.52;12.55;;;;;;;;;;5073556;28;20036;-77
2021/10/31 02:20:20;;;;;;;15.65;11.23;;;;;;;;;;5073284;28;20036;-76
2021/10/31 02:22:50;;;;;;;18.45;12.02;;;;;;;;;;5073309;28;20086;-76
2021/10/31 02:25:15;;;;;;;17.95;11.93;;;;;;;;;;5073162;28;20028;-76
2021/10/31 02:27:42;;;;;;;18.23;12.43;;;;;;;;;;5073452;28;20482;-76
2021/10/31 02:30:08;;;;;;;17.20;12.20;;;;;;;;;;5072896;28;20032;-77
2021/10/31 02:32:33;;;;;;;17.73;13.23;;;;;;;;;;5073268;28;20032;-77
2021/10/31 02:34:59;;;;;;;22.65;13.63;;;;;;;;;;5073131;28;20094;-76
2021/10/31 02:37:27;;;;;;;22.33;13.90;;;;;;;;;;5071930;28;20107;-76
2021/10/31 02:39:56;;;;;;;19.42;13.10;;;;;;;;;;5086598;28;20035;-76
2021/10/31 02:42:21;;;;;;;21.30;13.20;;;;;;;;;;5093336;28;20093;-76
2021/10/31 02:44:47;;;;;;;22.30;15.57;;;;;;;;;;5093154;28;20024;-76
2021/10/31 02:47:22;;;;;;;25.20;15.98;;;;;;;;;;5093384;28;20474;-76
2021/10/31 02:49:48;;;;;;;25.13;16.33;;;;;;;;;;5093282;28;20032;-76
2021/10/31 02:52:44;;;;;;;18.52;13.07;;;;;;;;;;5092996;28;20050;-76
2021/10/31 02:55:16;;;;;;;19.63;13.18;;;;;;;;;;5093271;28;20040;-76
2021/10/31 02:57:54;;;;;;;19.48;12.40;;;;;;;;;;5093064;28;20035;-76
2021/10/31 03:00:20;;;;;;;20.25;11.80;;;;;;;;;;5092929;28;20068;-76
2021/10/31 03:02:46;;;;;;;17.83;13.00;;;;;;;;;;5093106;28;20062;-76
2021/10/31 03:05:12;;;;;;;20.23;13.35;;;;;;;;;;5093420;28;20515;-76
2021/10/31 03:07:38;;;;;;;27.55;15.63;;;;;;;;;;5091928;28;20036;-76
2021/10/31 03:10:05;;;;;;;23.55;14.40;;;;;;;;;;5092809;28;20032;-76
2021/10/31 03:12:31;;;;;;;22.73;14.70;;;;;;;;;;5093166;28;20035;-76
2021/10/31 03:14:56;;;;;;;22.02;15.57;;;;;;;;;;5092827;28;20040;-76
2021/10/31 03:17:21;;;;;;;20.58;14.48;;;;;;;;;;5092992;28;20032;-76
2021/10/31 03:19:47;;;;;;;22.27;14.23;;;;;;;;;;5092953;28;20107;-77
2021/10/31 03:22:13;;;;;;;23.08;14.05;;;;;;;;;;5092633;28;20036;-76
2021/10/31 03:24:38;;;;;;;23.27;14.13;;;;;;;;;;5096058;28;20039;-76
2021/10/31 03:27:04;;;;;;;21.63;13.27;;;;;;;;;;5096937;28;20064;-76
2021/10/31 03:29:30;;;;;;;22.08;13.52;;;;;;;;;;5096568;28;20057;-76
2021/10/31 03:31:55;;;;;;;21.05;13.70;;;;;;;;;;5096365;28;20036;-76
2021/10/31 03:34:21;;;;;;;18.98;12.95;;;;;;;;;;5096769;28;20044;-76
2021/10/31 03:36:48;;;;;;;21.20;14.43;;;;;;;;;;5096610;28;20036;-75
2021/10/31 03:39:14;;;;;;;16.35;11.60;;;;;;;;;;5095365;28;20040;-76
2021/10/31 03:41:40;;;;;;;16.90;11.70;;;;;;;;;;5096050;28;20169;-76
2021/10/31 03:44:06;;;;;;;22.90;12.60;;;;;;;;;;5096229;28;20069;-76
2021/10/31 03:46:32;;;;;;;19.10;12.80;;;;;;;;;;5095927;28;20063;-76
2021/10/31 03:48:57;;;;;;;23.13;15.10;;;;;;;;;;5096405;28;20043;-76
2021/10/31 03:51:23;;;;;;;20.52;14.25;;;;;;;;;;5095780;28;20040;-76
2021/10/31 03:53:48;;;;;;;30.65;18.25;;;;;;;;;;5096101;28;20028;-76
2021/10/31 03:56:14;;;;;;;26.60;16.63;;;;;;;;;;5096206;28;20036;-76
2021/10/31 03:58:39;;;;;;;26.58;16.60;;;;;;;;;;5094951;28;20040;-76
2021/10/31 04:01:05;;;;;;;25.17;15.68;;;;;;;;;;5095701;28;20055;-76
2021/10/31 04:03:30;;;;;;;23.30;14.13;;;;;;;;;;5094896;28;20397;-76
2021/10/31 04:05:56;;;;;;;23.05;13.88;;;;;;;;;;5096223;28;20035;-76
2021/10/31 04:08:22;;;;;;;21.13;12.15;;;;;;;;;;5095997;28;20061;-76
2021/10/31 04:10:48;;;;;;;25.55;12.93;;;;;;;;;;5096036;28;20047;-76
2021/10/31 04:13:13;;;;;;;17.85;12.10;;;;;;;;;;5095727;28;20024;-76
2021/10/31 04:15:41;;;;;;;16.90;11.80;;;;;;;;;;5095694;28;20032;-76
2021/10/31 04:18:06;;;;;;;25.48;16.25;;;;;;;;;;5094464;28;20118;-76
2021/10/31 04:20:32;;;;;;;29.83;18.63;;;;;;;;;;5096038;28;20435;-76
2021/10/31 04:22:59;;;;;;;30.75;18.75;;;;;;;;;;5095601;28;20089;-76
2021/10/31 04:25:24;;;;;;;25.60;17.35;;;;;;;;;;5095936;28;20039;-76
2021/10/31 04:27:50;;;;;;;27.63;16.77;;;;;;;;;;5095456;28;20039;-76
2021/10/31 04:30:15;;;;;;;25.27;16.60;;;;;;;;;;5095466;28;20040;-76
2021/10/31 04:32:41;;;;;;;25.40;16.40;;;;;;;;;;5095143;28;20036;-76
2021/10/31 04:35:06;;;;;;;25.15;15.68;;;;;;;;;;5095618;28;20030;-76
2021/10/31 04:37:35;;;;;;;20.65;15.32;;;;;;;;;;5095172;28;20067;-76
2021/10/31 04:40:02;;;;;;;31.52;17.83;;;;;;;;;;5095354;28;20123;-76
2021/10/31 04:42:32;;;;;;;29.25;19.50;;;;;;;;;;5095332;28;20028;-76
2021/10/31 04:44:57;;;;;;;32.55;20.42;;;;;;;;;;5094914;28;20028;-76
2021/10/31 04:47:23;;;;;;;32.33;19.83;;;;;;;;;;5095157;28;20046;-76
2021/10/31 04:49:48;;;;;;;30.60;18.83;;;;;;;;;;5095332;28;20404;-76
2021/10/31 04:52:14;;;;;;;32.85;19.15;;;;;;;;;;5095066;28;20489;-76
2021/10/31 04:54:40;;;;;;;29.92;18.02;;;;;;;;;;5095206;28;20028;-76
2021/10/31 04:57:05;;;;;;;27.30;17.50;;;;;;;;;;5094668;28;20039;-76
2021/10/31 04:59:31;;;;;;;27.10;17.77;;;;;;;;;;5093407;28;20472;-76
2021/10/31 05:01:56;;;;;;;27.35;15.98;;;;;;;;;;5095054;28;20189;-76
2021/10/31 05:04:22;;;;;;;25.25;14.73;;;;;;;;;;5095065;28;20039;-76
2021/10/31 05:06:48;;;;;;;24.08;13.80;;;;;;;;;;5094683;28;20044;-76
2021/10/31 05:09:14;;;;;;;23.88;15.68;;;;;;;;;;5095074;28;20484;-76
2021/10/31 05:11:39;;;;;;;22.50;15.23;;;;;;;;;;5094735;28;20116;-76
2021/10/31 05:14:04;;;;;;;23.90;16.85;;;;;;;;;;5093238;28;20093;-76
2021/10/31 05:16:30;;;;;;;31.52;18.73;;;;;;;;;;5094556;28;20044;-76
2021/10/31 05:18:56;;;;;;;26.67;19.05;;;;;;;;;;5094635;28;20028;-76
2021/10/31 05:21:22;;;;;;;24.70;17.42;;;;;;;;;;5094157;28;20039;-76
2021/10/31 05:23:48;;;;;;;26.35;17.67;;;;;;;;;;5093895;28;20385;-76
2021/10/31 05:26:13;;;;;;;30.48;18.52;;;;;;;;;;5094364;28;20046;-76
2021/10/31 05:28:38;;;;;;;38.47;20.52;;;;;;;;;;5094505;28;20043;-76
2021/10/31 05:31:04;;;;;;;29.42;17.42;;;;;;;;;;5094298;28;20098;-76
2021/10/31 05:33:29;;;;;;;22.80;17.10;;;;;;;;;;5094303;28;20020;-76
2021/10/31 05:35:55;;;;;;;22.65;15.38;;;;;;;;;;5093219;28;20043;-75
2021/10/31 05:38:20;;;;;;;26.58;16.00;;;;;;;;;;5094066;28;20035;-75
2021/10/31 05:40:50;;;;;;;29.27;17.73;;;;;;;;;;5092943;28;20052;-75
2021/10/31 05:43:16;;;;;;;26.33;15.00;;;;;;;;;;5093880;28;20508;-75
2021/10/31 05:45:42;;;;;;;23.50;16.60;;;;;;;;;;5091772;28;20104;-75
2021/10/31 05:48:08;;;;;;;25.25;16.35;;;;;;;;;;5094122;28;20549;-75
2021/10/31 05:50:34;;;;;;;26.00;15.57;;;;;;;;;;5091274;28;20056;-75
2021/10/31 05:52:59;;;;;;;25.23;16.60;;;;;;;;;;5092304;28;20097;-75
2021/10/31 05:55:25;;;;;;;32.83;20.67;;;;;;;;;;5093855;28;20043;-75
2021/10/31 05:57:50;;;;;;;26.95;17.88;;;;;;;;;;5092439;28;20032;-75
2021/10/31 06:00:17;;;;;;;28.67;18.75;;;;;;;;;;5092970;28;20052;-75
2021/10/31 06:02:44;;;;;;;24.73;17.30;;;;;;;;;;5093194;28;20070;-75
2021/10/31 06:05:11;;;;;;;27.80;15.95;;;;;;;;;;5093189;28;20056;-75
2021/10/31 06:07:37;;;;;;;27.35;17.98;;;;;;;;;;5093548;28;20462;-75
2021/10/31 06:10:03;;;;;;;24.02;17.77;;;;;;;;;;5093719;28;20036;-75
2021/10/31 06:12:29;;;;;;;38.30;21.38;;;;;;;;;;5092085;28;20076;-75
2021/10/31 06:14:56;;;;;;;126.32;24.50;;;;;;;;;;5093681;28;20036;-75
2021/10/31 06:17:21;;;;;;;32.70;20.17;;;;;;;;;;5093700;28;20024;-75
2021/10/31 06:19:47;;;;;;;146.95;23.30;;;;;;;;;;5092338;28;20042;-76
2021/10/31 06:22:12;;;;;;;31.23;19.98;;;;;;;;;;5093513;28;20050;-76
2021/10/31 06:24:38;;;;;;;25.20;18.42;;;;;;;;;;5093243;28;20177;-76
2021/10/31 06:27:06;;;;;;;22.25;15.77;;;;;;;;;;5093532;28;20044;-76
2021/10/31 06:29:32;;;;;;;21.23;14.90;;;;;;;;;;5093537;28;20119;-76
2021/10/31 06:31:57;;;;;;;99.05;23.23;;;;;;;;;;5093787;28;20067;-76
2021/10/31 06:34:23;;;;;;;121.72;20.23;;;;;;;;;;5093662;28;20029;-76
2021/10/31 06:36:48;;;;;;;26.40;17.40;;;;;;;;;;5093346;28;20113;-77
2021/10/31 06:39:14;;;;;;;116.80;22.48;;;;;;;;;;5092514;28;20036;-77
2021/10/31 06:41:40;;;;;;;79.78;20.27;;;;;;;;;;5092950;28;20044;-77
2021/10/31 06:44:05;;;;;;;76.53;20.50;;;;;;;;;;5093036;28;20411;-77
2021/10/31 06:46:32;;;;;;;87.45;21.65;;;;;;;;;;5093042;28;20032;-77
2021/10/31 06:48:57;;;;;;;54.65;19.27;;;;;;;;;;5093230;28;20032;-77
2021/10/31 06:51:23;;;;;;;32.55;20.75;;;;;;;;;;5092991;28;20454;-77
2021/10/31 06:53:49;;;;;;;47.75;18.20;;;;;;;;;;5093195;28;20036;-77
2021/10/31 06:56:15;;;;;;;19.85;15.15;;;;;;;;;;5093851;28;20111;-77
2021/10/31 06:58:41;;;;;;;52.10;15.75;;;;;;;;;;5097132;28;20031;-77
2021/10/31 07:01:06;;;;;;;249.23;19.05;;;;;;;;;;5097169;28;20040;-77
2021/10/31 07:03:31;;;;;;;43.85;19.23;;;;;;;;;;5097415;28;20031;-77
2021/10/31 07:05:57;;;;;;;44.83;18.50;;;;;;;;;;5097247;28;20533;-77
2021/10/31 07:08:23;;;;;;;51.55;16.92;;;;;;;;;;5097071;28;20031;-75
2021/10/31 07:10:51;;;;;;;27.25;16.75;;;;;;;;;;5096881;28;20069;-75
2021/10/31 07:13:16;;;;;;;113.95;18.85;;;;;;;;;;5096428;28;20032;-75
2021/10/31 07:15:42;;;;;;;60.40;18.08;;;;;;;;;;5096873;28;20040;-75
2021/10/31 07:18:07;;;;;;;197.55;20.67;;;;;;;;;;5096928;28;20036;-75
2021/10/31 07:20:33;;;;;;;46.13;18.33;;;;;;;;;;5096907;28;20040;-75
2021/10/31 07:22:58;;;;;;;39.90;16.83;;;;;;;;;;5096645;28;20044;-75
2021/10/31 07:25:25;;;;;;;87.80;17.90;;;;;;;;;;5095575;28;20036;-75
2021/10/31 07:27:52;;;;;;;180.45;21.02;;;;;;;;;;5096705;28;20035;-75
2021/10/31 07:30:19;;;;;;;76.32;17.80;;;;;;;;;;5096776;28;20047;-75
2021/10/31 07:33:09;;;;;;;39.50;18.17;;;;;;;;;;5095791;28;20492;-75
2021/10/31 07:35:35;;;;;;;154.63;21.60;;;;;;;;;;5096655;28;20036;-76
2021/10/31 07:38:02;;;;;;;29.77;18.17;;;;;;;;;;5096065;28;20042;-77
2021/10/31 07:40:28;;;;;;;24.92;17.13;;;;;;;;;;5096205;28;20048;-76
2021/10/31 07:42:53;;;;;;;31.75;17.13;;;;;;;;;;5095918;28;20035;-76
2021/10/31 07:45:19;;;;;;;25.80;16.15;;;;;;;;;;5078095;28;20485;-76
2021/10/31 07:47:44;;;;;;;26.02;14.63;;;;;;;;;;5095189;28;20028;-77
2021/10/31 07:50:09;;;;;;;34.78;13.10;;;;;;;;;;5096202;28;20043;-77
2021/10/31 07:52:41;;;;;;;19.95;13.73;;;;;;;;;;5095658;28;20043;-77
2021/10/31 07:55:08;;;;;;;44.67;14.75;;;;;;;;;;5096168;28;20028;-76
2021/10/31 07:57:34;;;;;;;22.00;14.98;;;;;;;;;;5095915;28;20039;-75
2021/10/31 07:59:59;;;;;;;31.10;15.63;;;;;;;;;;5095820;28;20035;-76
2021/10/31 08:02:24;;;;;;;21.63;15.57;;;;;;;;;;5094725;28;20513;-76
2021/10/31 08:04:50;;;;;;;27.08;17.08;;;;;;;;;;5096103;28;20393;-75
2021/10/31 08:07:16;;;;;;;20.15;14.80;;;;;;;;;;5094097;28;20055;-74
2021/10/31 08:09:41;;;;;;;19.02;14.48;;;;;;;;;;5095524;28;20081;-75
2021/10/31 08:12:07;;;;;;;17.10;13.18;;;;;;;;;;5095787;28;20036;-74
2021/10/31 08:14:32;;;;;;;16.08;12.88;;;;;;;;;;5095032;28;20115;-75
2021/10/31 08:16:58;;;;;;;15.07;12.88;;;;;;;;;;5095074;28;20040;-75
2021/10/31 08:19:24;;;;;;;21.20;12.18;;;;;;;;;;5095487;28;20024;-75
2021/10/31 08:21:51;;;;;;;14.88;11.73;;;;;;;;;;5094610;28;20078;-75
2021/10/31 08:24:17;;;;;;;15.85;12.32;;;;;;;;;;5094543;28;20104;-76
2021/10/31 08:26:42;;;;;;;15.30;11.68;;;;;;;;;;5095005;28;20470;-76
2021/10/31 08:29:09;;;;;;;14.82;11.65;;;;;;;;;;5095326;28;20040;-75
2021/10/31 08:31:38;;;;;;;22.67;18.30;;;;;;;;;;5095058;28;20028;-76
2021/10/31 08:34:04;;;;;;;16.48;14.07;;;;;;;;;;5095250;28;20062;-76
2021/10/31 08:36:30;;;;;;;20.08;13.40;;;;;;;;;;5094226;28;20079;-74
2021/10/31 08:38:56;;;;;;;12.80;10.80;;;;;;;;;;5094727;28;20435;-76
2021/10/31 08:41:22;;;;;;;15.32;12.65;;;;;;;;;;5095025;28;20119;-77
2021/10/31 08:43:49;;;;;;;14.25;12.02;;;;;;;;;;5095380;28;20127;-77
2021/10/31 08:46:15;;;;;;;15.05;11.73;;;;;;;;;;5095349;28;20082;-74
2021/10/31 08:48:41;;;;;;;13.23;11.73;;;;;;;;;;5095390;28;20378;-77
2021/10/31 08:51:07;;;;;;;14.48;12.88;;;;;;;;;;5095168;28;20040;-74
2021/10/31 08:53:34;;;;;;;14.55;11.63;;;;;;;;;;5095177;28;20070;-75
2021/10/31 08:55:59;;;;;;;14.65;11.38;;;;;;;;;;5094405;28;20043;-77
2021/10/31 08:58:25;;;;;;;13.43;10.55;;;;;;;;;;5093846;28;20032;-77
2021/10/31 09:00:50;;;;;;;12.38;10.07;;;;;;;;;;5092682;28;20038;-77
2021/10/31 09:03:16;;;;;;;13.23;10.10;;;;;;;;;;5092807;28;20093;-76
2021/10/31 09:05:42;;;;;;;12.80;11.00;;;;;;;;;;5093827;28;20028;-76
2021/10/31 09:08:09;;;;;;;12.20;9.93;;;;;;;;;;5094980;28;20067;-75
2021/10/31 09:10:35;;;;;;;11.98;10.25;;;;;;;;;;5094752;28;20036;-76
2021/10/31 09:13:01;;;;;;;16.63;10.85;;;;;;;;;;5094866;28;20382;-75
2021/10/31 09:15:27;;;;;;;12.80;10.38;;;;;;;;;;5094797;28;20039;-76
2021/10/31 09:17:53;;;;;;;11.77;8.75;;;;;;;;;;5094521;28;20093;-77
2021/10/31 09:20:18;;;;;;;14.65;9.30;;;;;;;;;;5093698;28;20032;-77
2021/10/31 09:22:44;;;;;;;10.65;9.25;;;;;;;;;;5093804;28;20758;-75
2021/10/31 09:25:10;;;;;;;14.23;8.93;;;;;;;;;;5094264;28;20039;-75
2021/10/31 09:27:36;;;;;;;16.63;10.50;;;;;;;;;;5094337;28;20120;-75
2021/10/31 09:30:06;;;;;;;12.80;10.05;;;;;;;;;;5092844;28;20032;-75
2021/10/31 09:32:38;;;;;;;12.38;10.52;;;;;;;;;;5093313;28;20126;-75
2021/10/31 09:35:07;;;;;;;9.35;7.72;;;;;;;;;;5076492;28;20524;-74
2021/10/31 09:37:34;;;;;;;12.40;8.45;;;;;;;;;;5093445;28;20024;-74
2021/10/31 09:40:01;;;;;;;10.50;7.75;;;;;;;;;;5092547;28;20047;-74
2021/10/31 09:42:35;;;;;;;12.75;8.73;;;;;;;;;;5070700;28;20382;-77
2021/10/31 09:45:04;;;;;;;8.70;6.93;;;;;;;;;;5070405;28;20037;-74
2021/10/31 09:47:30;;;;;;;10.40;6.97;;;;;;;;;;5070686;28;20075;-74
2021/10/31 09:49:55;;;;;;;9.07;6.22;;;;;;;;;;5070227;28;20076;-74
2021/10/31 09:52:24;;;;;;;8.73;5.00;;;;;;;;;;5069930;28;20040;-74
2021/10/31 09:54:49;;;;;;;5.82;4.63;;;;;;;;;;5069975;28;20032;-75
2021/10/31 09:57:15;;;;;;;7.15;4.88;;;;;;;;;;5068898;28;20040;-75
2021/10/31 09:59:49;;;;;;;8.90;4.75;;;;;;;;;;5067977;28;20035;-75
2021/10/31 10:02:44;;;;;;;5.60;4.32;;;;;;;;;;5069691;28;20053;-76
2021/10/31 10:05:19;;;;;;;7.07;4.32;;;;;;;;;;5068683;28;20044;-75
2021/10/31 10:07:45;;;;;;;7.22;5.30;;;;;;;;;;5070337;28;20068;-77
2021/10/31 10:10:13;;;;;;;6.43;4.00;;;;;;;;;;5069142;28;20478;-78
2021/10/31 10:12:39;;;;;;;5.18;3.90;;;;;;;;;;5070860;28;20059;-78
2021/10/31 10:15:07;;;;;;;5.10;3.75;;;;;;;;;;5071200;28;20040;-76
2021/10/31 10:18:02;;;;;;;7.47;3.13;;;;;;;;;;5070215;28;20079;-77
2021/10/31 10:20:27;;;;;;;3.97;2.90;;;;;;;;;;5065503;28;20040;-75
2021/10/31 10:23:07;;;;;;;8.68;3.22;;;;;;;;;;5070370;28;20047;-75
2021/10/31 10:25:41;;;;;;;4.22;2.75;;;;;;;;;;5070324;28;20127;-75
2021/10/31 10:28:22;;;;;;;4.20;2.70;;;;;;;;;;5070084;28;20029;-76
2021/10/31 10:30:47;;;;;;;6.70;2.40;;;;;;;;;;5069936;28;20033;-75
2021/10/31 10:33:21;;;;;;;6.07;2.30;;;;;;;;;;5069525;28;20115;-75
2021/10/31 10:35:57;;;;;;;3.92;2.30;;;;;;;;;;5069773;28;20048;-76
2021/10/31 10:38:24;;;;;;;6.10;2.53;;;;;;;;;;5068761;28;20074;-79
2021/10/31 10:40:49;;;;;;;7.20;2.70;;;;;;;;;;5052687;28;20101;-77
2021/10/31 10:43:14;;;;;;;4.32;2.42;;;;;;;;;;5049793;28;20122;-76
2021/10/31 10:45:41;;;;;;;3.50;2.00;;;;;;;;;;5050235;28;20044;-77
2021/10/31 10:48:08;;;;;;;2.40;1.98;;;;;;;;;;5051831;28;20037;-79
2021/10/31 10:50:39;;;;;;;4.03;1.92;;;;;;;;;;5056049;28;20029;-78
2021/10/31 10:53:13;;;;;;;4.72;1.83;;;;;;;;;;5040857;28;20052;-78
2021/10/31 10:55:38;;;;;;;5.32;1.92;;;;;;;;;;5036200;28;20040;-77
2021/10/31 10:58:13;;;;;;;5.18;2.28;;;;;;;;;;5036006;28;20045;-77
2021/10/31 11:00:46;;;;;;;2.73;2.07;;;;;;;;;;5036151;28;20369;-76
2021/10/31 11:03:20;;;;;;;2.30;1.63;;;;;;;;;;5035979;28;20099;-77
2021/10/31 11:05:51;;;;;;;9.00;2.83;;;;;;;;;;5034642;28;20491;-76
2021/10/31 11:08:19;;;;;;;4.65;1.77;;;;;;;;;;5036178;28;20121;-77
2021/10/31 11:11:02;;;;;;;5.25;1.70;;;;;;;;;;5035634;28;20021;-76
2021/10/31 11:13:29;;;;;;;2.30;1.60;;;;;;;;;;5059333;28;20613;-76
2021/10/31 11:15:56;;;;;;;5.40;1.83;;;;;;;;;;5075882;28;20076;-75
2021/10/31 11:18:22;;;;;;;3.15;1.70;;;;;;;;;;5075589;28;20020;-76
2021/10/31 11:20:48;;;;;;;2.65;1.70;;;;;;;;;;5074974;28;20116;-76
2021/10/31 11:23:17;;;;;;;8.98;1.75;;;;;;;;;;5067963;28;20453;-76
2021/10/31 11:25:45;;;;;;;3.40;1.70;;;;;;;;;;5055441;28;20059;-75
2021/10/31 11:28:15;;;;;;;3.08;1.70;;;;;;;;;;5055844;28;20076;-77
2021/10/31 11:30:42;;;;;;;5.72;1.60;;;;;;;;;;5055244;28;20043;-77
2021/10/31 11:33:09;;;;;;;4.88;2.05;;;;;;;;;;5053984;28;20079;-77
2021/10/31 11:35:35;;;;;;;5.25;1.58;;;;;;;;;;5055725;28;20044;-77
2021/10/31 11:38:04;;;;;;;2.38;1.50;;;;;;;;;;5055072;28;20374;-78
2021/10/31 11:40:33;;;;;;;3.97;1.35;;;;;;;;;;5053695;28;20041;-76
2021/10/31 11:43:01;;;;;;;4.80;2.60;;;;;;;;;;5040332;28;20171;-78
2021/10/31 11:45:38;;;;;;;3.13;1.52;;;;;;;;;;5035196;28;20475;-78
2021/10/31 11:48:12;;;;;;;3.35;1.40;;;;;;;;;;5033957;28;20072;-77
2021/10/31 11:50:41;;;;;;;7.60;2.53;;;;;;;;;;5035243;28;20034;-78
2021/10/31 11:53:16;;;;;;;2.03;1.48;;;;;;;;;;5045571;28;20121;-78
2021/10/31 11:55:47;;;;;;;4.82;1.52;;;;;;;;;;5043065;28;20037;-75
2021/10/31 11:58:31;;;;;;;3.25;1.70;;;;;;;;;;5053352;28;20372;-73
2021/10/31 12:01:10;;;;;;;4.65;1.38;;;;;;;;;;5054817;28;20040;-75
2021/10/31 12:03:39;;;;;;;3.30;1.88;;;;;;;;;;5054180;28;20040;-76
2021/10/31 12:06:13;;;;;;;2.92;1.38;;;;;;;;;;5054360;28;20044;-76
2021/10/31 12:08:54;;;;;;;4.75;1.38;;;;;;;;;;5053791;28;20037;-74
2021/10/31 12:11:39;;;;;;;2.58;1.30;;;;;;;;;;5054373;28;20041;-76
2021/10/31 12:14:10;;;;;;;1.63;1.30;;;;;;;;;;5031415;28;20131;-76
2021/10/31 12:16:56;;;;;;;5.55;1.80;;;;;;;;;;5054774;28;20036;-76
2021/10/31 12:19:23;;;;;;;4.30;1.55;;;;;;;;;;5053543;28;20033;-76
2021/10/31 12:22:07;;;;;;;2.58;1.40;;;;;;;;;;5053097;28;20041;-73
2021/10/31 12:24:42;;;;;;;6.20;1.67;;;;;;;;;;5053856;28;20041;-75
2021/10/31 12:27:10;;;;;;;3.27;1.80;;;;;;;;;;5053834;28;20491;-80
2021/10/31 12:29:36;;;;;;;5.35;1.45;;;;;;;;;;5056534;28;20055;-79
2021/10/31 12:32:14;;;;;;;5.00;1.42;;;;;;;;;;5054373;28;20070;-79
2021/10/31 12:34:45;;;;;;;3.00;1.60;;;;;;;;;;5056140;28;20083;-79
2021/10/31 12:37:23;;;;;;;4.82;2.72;;;;;;;;;;5056791;28;20040;-78
2021/10/31 12:39:52;;;;;;;2.67;1.33;;;;;;;;;;5037744;28;20048;-80
2021/10/31 12:42:20;;;;;;;6.65;1.80;;;;;;;;;;5037003;28;20077;-79
2021/10/31 12:45:12;;;;;;;3.63;1.83;;;;;;;;;;5055119;28;20515;-80
2021/10/31 12:48:03;;;;;;;4.28;1.33;;;;;;;;;;5056624;28;20499;-83
2021/10/31 12:50:30;;;;;;;2.53;1.65;;;;;;;;;;5058684;28;20041;-79
2021/10/31 12:52:58;;;;;;;2.17;1.60;;;;;;;;;;5057834;28;20048;-76
2021/10/31 12:55:24;;;;;;;6.78;1.63;;;;;;;;;;5053944;28;20045;-76
2021/10/31 12:57:53;;;;;;;3.40;1.85;;;;;;;;;;5053366;28;20517;-75
2021/10/31 13:00:19;;;;;;;2.17;1.92;;;;;;;;;;5053566;28;20035;-75
2021/10/31 13:02:53;;;;;;;7.50;2.30;;;;;;;;;;5053797;28;20086;-79
2021/10/31 13:05:33;;;;;;;4.35;2.20;;;;;;;;;;5055937;28;20096;-83
2021/10/31 13:08:00;;;;;;;7.95;2.00;;;;;;;;;;5050120;28;20036;-83
2021/10/31 13:10:37;;;;;;;3.38;2.42;;;;;;;;;;5036698;28;20048;-79
2021/10/31 13:13:12;;;;;;;2.25;1.52;;;;;;;;;;5040862;28;20060;-79
2021/10/31 13:15:41;;;;;;;4.72;2.00;;;;;;;;;;5056040;28;20107;-79
2021/10/31 13:18:21;;;;;;;4.10;1.90;;;;;;;;;;5054699;28;21142;-79
2021/10/31 13:20:54;;;;;;;2.97;2.10;;;;;;;;;;5055543;28;20123;-79
2021/10/31 13:23:22;;;;;;;7.25;2.38;;;;;;;;;;5054334;28;20040;-79
2021/10/31 13:25:58;;;;;;;2.67;2.08;;;;;;;;;;5057131;28;20028;-79
2021/10/31 13:28:31;;;;;;;;;;;;;;;;;;5056088;28;20115;-79
2021/10/31 13:31:11;;;;;;;2.60;2.20;;;;;;;;;;5056561;28;20290;-79
2021/10/31 13:33:46;;;;;;;7.10;2.50;;;;;;;;;;5055018;28;20542;-79
2021/10/31 13:36:18;;;;;;;6.32;2.13;;;;;;;;;;5056227;28;20471;-79
2021/10/31 13:38:54;;;;;;;6.15;2.10;;;;;;;;;;5055257;28;20047;-79
2021/10/31 13:41:44;;;;;;;2.08;1.65;;;;;;;;;;5053397;28;20056;-79
2021/10/31 13:44:13;;;;;;;2.45;2.00;;;;;;;;;;5051821;28;20060;-79
2021/10/31 13:46:48;;;;;;;3.30;1.90;;;;;;;;;;5055473;28;20047;-79
2021/10/31 13:49:17;;;;;;;2.78;1.88;;;;;;;;;;5036833;28;20043;-79
2021/10/31 13:51:45;;;;;;;2.25;2.05;;;;;;;;;;5055423;28;20398;-79
2021/10/31 13:54:12;;;;;;;6.53;2.00;;;;;;;;;;5055594;28;20533;-79
2021/10/31 13:56:40;;;;;;;4.18;2.05;;;;;;;;;;5055370;28;20037;-79
2021/10/31 13:59:07;;;;;;;2.10;1.67;;;;;;;;;;5054786;28;20061;-79
2021/10/31 14:01:39;;;;;;;3.53;1.90;;;;;;;;;;5053673;28;20120;-79
2021/10/31 14:04:17;;;;;;;6.28;1.92;;;;;;;;;;5037228;28;20036;-78
2021/10/31 14:06:44;;;;;;;3.70;1.77;;;;;;;;;;5052372;28;20039;-78
2021/10/31 14:09:12;;;;;;;3.10;2.10;;;;;;;;;;5055245;28;20055;-78
2021/10/31 14:12:00;;;;;;;2.75;1.60;;;;;;;;;;5055270;28;20108;-78
2021/10/31 14:14:38;;;;;;;4.00;2.22;;;;;;;;;;5054873;28;20463;-78
2021/10/31 14:17:07;;;;;;;2.15;1.55;;;;;;;;;;5055447;28;20082;-79
2021/10/31 14:19:33;;;;;;;3.03;1.90;;;;;;;;;;5055290;28;20041;-78
2021/10/31 14:22:03;;;;;;;3.10;1.85;;;;;;;;;;5054966;28;20021;-78
2021/10/31 14:24:29;;;;;;;3.08;1.60;;;;;;;;;;5072965;28;20103;-78
2021/10/31 14:26:55;;;;;;;6.45;1.90;;;;;;;;;;5074810;28;20482;-78
2021/10/31 14:29:24;;;;;;;8.27;1.90;;;;;;;;;;5078333;28;20037;-78
2021/10/31 14:31:51;;;;;;;2.08;1.52;;;;;;;;;;5078551;28;20071;-78
2021/10/31 14:34:17;;;;;;;2.95;1.73;;;;;;;;;;5078643;28;20035;-79
2021/10/31 14:36:43;;;;;;;2.28;1.67;;;;;;;;;;5080702;28;20405;-78